Flight Track Log - Related Links

Times and Time Zones

All times are in EDT time to prevent confusion due to time zone crossing. See the CTL15 flight status page for this flight to view local times or setup timezone preferences in your user account.

Time Position Orientation Groundspeed Altitude Reporting Facility
EDT Latitude Longitude Course Direction KTS MPH feet Rate Location/Type
19:37 39.6197 -84.1936 45° Northeast 128 147 2,100  Level Indianapolis Center
19:38 39.6383 -84.1692 45° Northeast 142 163 2,800 600 Climbing Indianapolis Center
19:39 39.6756 -84.1225 44° Northeast 170 196 3,200 785 Climbing Indianapolis Center
19:40 39.7061 -84.0833 45° Northeast 164 189 4,500 1,161 Climbing Indianapolis Center
19:41 39.7322 -84.0497 45° Northeast 125 144 5,600 976 Climbing Indianapolis Center
19:42 39.7617 -84.0117 45° Northeast 137 158 6,500 726 Climbing Indianapolis Center
19:43 39.7911 -83.9697 48° Northeast 148 170 7,100 359 Climbing Indianapolis Center
19:44 39.8294 -83.9197 45° Northeast 197 227 7,200 -48 Climbing Indianapolis Center
19:45 39.8694 -83.8664 46° Northeast 193 222 7,000 -52 Descending Indianapolis Center
19:46 39.9019 -83.8203 47° Northeast 201 231 7,100  Climbing Indianapolis Center
19:47 39.9414 -83.7708 44° Northeast 198 228 7,000 -79 Descending Indianapolis Center
19:47 39.9483 -83.7631 41° Northeast 198 228 7,000 197 Level Indianapolis Center
19:48 39.9806 -83.7214 45° Northeast 196 226 7,200 194 Climbing Indianapolis Center
19:48 39.9875 -83.7122 45° Northeast 197 227 7,200  Level Indianapolis Center
19:49 40.0272 -83.6611 45° Northeast 197 227 7,200 -115 Level Indianapolis Center
19:50 40.0572 -83.6194 47° Northeast 198 228 7,000 -97 Descending Indianapolis Center
19:50 40.0661 -83.6092 42° Northeast 197 227 7,100 -98 Climbing Indianapolis Center
19:51 40.0964 -83.5697 45° Northeast 197 227 6,900  Descending Indianapolis Center
19:51 40.1056 -83.5581 44° Northeast 197 227 7,100 98 Climbing Indianapolis Center
19:52 40.1381 -83.5175 44° Northeast 193 222 7,000 -98 Descending Indianapolis Center
19:52 40.1511 -83.5000 46° Northeast 195 224 7,000  Level Indianapolis Center
19:53 40.1703 -83.4750 45° Northeast 194 223 7,000  Level Indianapolis Center
19:53 40.1897 -83.4492 45° Northeast 194 223 7,000  Level Indianapolis Center
19:54 40.2053 -83.4275 47° Northeast 194 223 7,000 97 Level Indianapolis Center
19:54 40.2281 -83.3989 44° Northeast 194 223 7,100 90 Climbing Indianapolis Center
19:55 40.2492 -83.3700 46° Northeast 194 223 7,100  Level Indianapolis Center
19:55 40.2656 -83.3458 48° Northeast 194 223 7,100 -100 Level Indianapolis Center
19:56 40.2864 -83.3172 46° Northeast 194 223 7,000 -97 Descending Indianapolis Center
19:56 40.3031 -83.2956 45° Northeast 194 223 7,000 98 Level Indianapolis Center
19:57 40.3253 -83.2697 42° Northeast 191 220 7,100  Climbing Indianapolis Center
19:57 40.3431 -83.2469 44° Northeast 193 222 7,000 -197 Descending Indianapolis Center
19:58 40.3619 -83.2222 45° Northeast 193 222 6,900 194 Descending Indianapolis Center
19:58 40.3797 -83.1972 47° Northeast 190 219 7,200  Climbing Indianapolis Center
19:59 40.3992 -83.1719 45° Northeast 192 221 6,900 -295 Descending Indianapolis Center
19:59 40.4175 -83.1464 47° Northeast 192 221 6,900 63 Level Indianapolis Center
20:00 40.4553 -83.0972 45° Northeast 191 220 7,000 97 Climbing Indianapolis Center
20:01 40.4928 -83.0486 45° Northeast 189 217 7,100 49 Climbing Indianapolis Center
20:02 40.5347 -82.9867 48° Northeast 190 219 7,100  Level Indianapolis Center
20:03 40.5728 -82.9372 45° Northeast 191 220 7,100 -48 Level Indianapolis Center
20:04 40.6097 -82.8878 45° Northeast 190 219 7,000  Descending Indianapolis Center
20:05 40.6461 -82.8400 45° Northeast 186 214 7,100 49 Climbing Indianapolis Center
20:07 40.6817 -82.7953 44° Northeast 180 207 7,100  Level Indianapolis Center
20:08 40.7164 -82.7481 46° Northeast 177 204 7,100 -48 Level Indianapolis Center
20:09 40.7508 -82.6994 47° Northeast 179 206 7,000 -146 Descending Indianapolis Center
20:10 40.7858 -82.6511 46° Northeast 179 206 6,800 -197 Descending Indianapolis Center

Login

Don't have an account? Register now (free) for customized features, flight alerts, and more!